createdAt,value
2022-11-18T00:01:06.705Z,13.18
2022-11-18T00:03:33.556Z,13.35
2022-11-18T00:06:00.346Z,13.43
2022-11-18T00:08:27.132Z,13.44
2022-11-18T00:10:54.276Z,13.43
2022-11-18T00:13:40.017Z,13.38
2022-11-18T00:16:09.548Z,13.39
2022-11-18T00:18:37.244Z,13.34
2022-11-18T00:21:06.097Z,13.38
2022-11-18T00:23:33.288Z,13.42
2022-11-18T00:26:14.524Z,13.39
2022-11-18T00:28:42.079Z,13.43
2022-11-18T00:31:13.724Z,13.35
2022-11-18T00:33:41.309Z,13.39
2022-11-18T00:36:11.010Z,13.36
2022-11-18T00:38:38.413Z,13.33
2022-11-18T00:41:14.792Z,13.28
2022-11-18T00:43:42.432Z,13.27
2022-11-18T00:46:11.652Z,13.19
2022-11-18T00:48:39.455Z,13.20
2022-11-18T00:51:08.636Z,13.12
2022-11-18T00:53:35.488Z,13.11
2022-11-18T00:56:02.465Z,13.07
2022-11-18T00:58:30.272Z,12.99
2022-11-18T01:00:57.175Z,12.90
2022-11-18T01:03:28.698Z,12.94
2022-11-18T01:05:56.029Z,12.93
2022-11-18T01:08:23.085Z,12.89
2022-11-18T01:10:50.959Z,12.86
2022-11-18T01:13:20.279Z,12.92
2022-11-18T01:15:54.480Z,12.87
2022-11-18T01:18:24.137Z,12.88
2022-11-18T01:20:51.035Z,12.73
2022-11-18T01:23:19.361Z,12.77
2022-11-18T01:25:48.232Z,12.69
2022-11-18T01:28:21.794Z,12.72
2022-11-18T01:30:50.419Z,12.73
2022-11-18T01:33:17.279Z,12.78
2022-11-18T01:35:44.505Z,12.90
2022-11-18T01:38:14.051Z,12.97
2022-11-18T01:40:41.559Z,13.00
2022-11-18T01:43:14.458Z,13.05
2022-11-18T01:45:43.387Z,13.10
2022-11-18T01:48:21.256Z,13.03
2022-11-18T01:50:52.407Z,12.96
2022-11-18T01:53:25.746Z,12.98
2022-11-18T01:55:55.311Z,12.94
2022-11-18T01:58:29.149Z,12.94
2022-11-18T02:00:55.935Z,13.01
2022-11-18T02:03:23.676Z,13.04
2022-11-18T02:05:52.008Z,12.91
2022-11-18T02:08:19.300Z,12.92
2022-11-18T02:10:46.034Z,12.88
2022-11-18T02:13:13.492Z,12.90
2022-11-18T02:16:03.107Z,12.84
2022-11-18T02:18:32.973Z,12.88
2022-11-18T02:21:16.661Z,12.84
2022-11-18T02:24:30.878Z,12.73
2022-11-18T02:27:12.406Z,12.86
2022-11-18T02:29:48.628Z,12.84
2022-11-18T02:32:50.702Z,12.76
2022-11-18T02:35:32.041Z,12.92
2022-11-18T02:38:23.110Z,12.85
2022-11-18T02:40:55.734Z,12.90
2022-11-18T02:43:29.038Z,12.87
2022-11-18T02:46:01.833Z,12.76
2022-11-18T02:48:32.778Z,12.85
2022-11-18T02:51:02.062Z,12.78
2022-11-18T02:53:32.660Z,12.84
2022-11-18T02:56:01.949Z,12.87
2022-11-18T02:58:28.708Z,12.86
2022-11-18T03:00:57.555Z,12.89
2022-11-18T03:03:35.264Z,12.94
2022-11-18T03:06:20.291Z,12.83
2022-11-18T03:08:53.658Z,12.73
2022-11-18T03:11:24.186Z,12.72
2022-11-18T03:14:09.424Z,12.72
2022-11-18T03:16:50.961Z,12.64
2022-11-18T03:19:20.564Z,12.60
2022-11-18T03:22:01.535Z,12.50
2022-11-18T03:24:33.717Z,12.41
2022-11-18T03:27:33.733Z,12.33
2022-11-18T03:30:08.371Z,12.35
2022-11-18T03:32:40.673Z,12.33
2022-11-18T03:35:14.552Z,12.29
2022-11-18T03:37:42.930Z,12.26
2022-11-18T03:40:19.031Z,12.24
2022-11-18T03:42:50.694Z,12.23
2022-11-18T03:45:32.984Z,12.22
2022-11-18T03:48:17.069Z,12.24
2022-11-18T03:50:59.754Z,12.21
2022-11-18T03:53:30.604Z,12.13
2022-11-18T03:56:21.270Z,12.17
2022-11-18T03:59:01.959Z,12.19
2022-11-18T04:01:51.765Z,12.07
2022-11-18T04:04:19.413Z,12.08
2022-11-18T04:06:48.524Z,12.06
2022-11-18T04:09:20.821Z,12.01
2022-11-18T04:12:03.984Z,11.91
2022-11-18T04:14:36.952Z,11.85
2022-11-18T04:17:29.973Z,11.69
2022-11-18T04:19:56.868Z,11.67
2022-11-18T04:22:23.652Z,11.72
2022-11-18T04:24:50.501Z,11.69
2022-11-18T04:27:17.582Z,11.68
2022-11-18T04:29:44.429Z,11.57
2022-11-18T04:32:11.200Z,11.66
2022-11-18T04:34:38.037Z,11.60
2022-11-18T04:37:04.909Z,11.67
2022-11-18T04:39:31.656Z,11.59
2022-11-18T04:41:58.522Z,11.46
2022-11-18T04:44:30.684Z,11.55
2022-11-18T04:46:59.652Z,11.59
2022-11-18T04:49:27.333Z,11.57
2022-11-18T04:51:54.646Z,11.49
2022-11-18T04:54:21.904Z,11.53
2022-11-18T04:56:49.820Z,11.50
2022-11-18T04:59:20.871Z,11.46
2022-11-18T05:01:49.373Z,11.46
2022-11-18T05:04:19.364Z,11.44
2022-11-18T05:06:46.567Z,11.42
2022-11-18T05:09:13.759Z,11.38
2022-11-18T05:11:59.041Z,11.38
2022-11-18T05:14:30.679Z,11.34
2022-11-18T05:16:59.477Z,11.39
2022-11-18T05:19:26.631Z,11.45
2022-11-18T05:21:53.686Z,11.48
2022-11-18T05:24:21.054Z,11.55
2022-11-18T05:26:47.807Z,11.40
2022-11-18T05:29:15.029Z,11.43
2022-11-18T05:31:41.921Z,11.38
2022-11-18T05:34:08.671Z,11.49
2022-11-18T05:36:35.810Z,11.45
2022-11-18T05:39:03.749Z,11.33
2022-11-18T05:41:49.077Z,11.28
2022-11-18T05:44:16.254Z,11.18
2022-11-18T05:46:43.160Z,11.18
2022-11-18T05:49:10.084Z,11.17
2022-11-18T05:51:36.979Z,11.14
2022-11-18T05:54:07.756Z,11.09
2022-11-18T05:56:45.276Z,11.07
2022-11-18T05:59:12.944Z,11.09
2022-11-18T06:02:03.886Z,10.96
2022-11-18T06:04:39.943Z,10.99
2022-11-18T06:07:15.635Z,10.93
2022-11-18T06:09:45.281Z,10.90
2022-11-18T06:12:16.318Z,10.90
2022-11-18T06:14:56.913Z,10.91
2022-11-18T06:17:32.962Z,10.90
2022-11-18T06:20:00.097Z,10.89
2022-11-18T06:22:26.985Z,10.91
2022-11-18T06:24:54.218Z,10.86
2022-11-18T06:27:21.680Z,10.88
2022-11-18T06:29:48.398Z,10.92
2022-11-18T06:32:15.452Z,10.78
2022-11-18T06:34:42.309Z,10.93
2022-11-18T06:37:14.864Z,10.97
2022-11-18T06:39:41.676Z,10.91
2022-11-18T06:42:08.513Z,10.99
2022-11-18T06:44:35.363Z,10.93
2022-11-18T06:47:03.851Z,10.93
2022-11-18T06:49:30.678Z,10.97
2022-11-18T06:51:57.700Z,10.93
2022-11-18T06:54:24.473Z,10.97
2022-11-18T06:56:51.177Z,11.00
2022-11-18T06:59:24.064Z,11.08
2022-11-18T07:01:53.519Z,11.14
2022-11-18T07:04:20.950Z,11.14
2022-11-18T07:06:47.999Z,11.07
2022-11-18T07:09:15.005Z,11.33
2022-11-18T07:11:41.809Z,11.34
2022-11-18T07:14:09.824Z,11.38
2022-11-18T07:16:36.907Z,11.36
2022-11-18T07:19:12.901Z,11.27
2022-11-18T07:21:40.608Z,11.28
2022-11-18T07:24:09.934Z,11.24
2022-11-18T07:26:36.989Z,11.09
2022-11-18T07:29:04.568Z,11.17
2022-11-18T07:31:32.248Z,11.23
2022-11-18T07:33:59.161Z,11.20
2022-11-18T07:36:32.490Z,11.18
2022-11-18T07:39:03.919Z,11.15
2022-11-18T07:41:31.304Z,11.08
2022-11-18T07:44:01.447Z,11.11
2022-11-18T07:46:30.588Z,10.88
2022-11-18T07:48:59.843Z,11.11
2022-11-18T07:51:29.094Z,11.18
2022-11-18T07:53:56.410Z,11.21
2022-11-18T07:56:23.629Z,11.26
2022-11-18T07:58:54.958Z,11.33
2022-11-18T08:01:25.137Z,11.46
2022-11-18T08:03:52.476Z,11.39
2022-11-18T08:06:20.313Z,11.79
2022-11-18T08:08:47.448Z,12.17
2022-11-18T08:11:22.730Z,12.46
2022-11-18T08:13:51.520Z,12.90
2022-11-18T08:16:23.490Z,13.33
2022-11-18T08:18:50.838Z,13.60
2022-11-18T08:21:19.452Z,14.03
2022-11-18T08:23:54.521Z,14.27
2022-11-18T08:26:22.060Z,14.58
2022-11-18T08:28:49.333Z,14.93
2022-11-18T08:31:27.735Z,15.38
2022-11-18T08:33:58.298Z,15.91
2022-11-18T08:36:27.845Z,16.25
2022-11-18T08:38:59.671Z,16.41
2022-11-18T08:41:35.755Z,16.66
2022-11-18T08:44:03.239Z,16.97
2022-11-18T08:46:30.464Z,17.20
2022-11-18T08:48:58.160Z,17.58
2022-11-18T08:51:25.828Z,18.03
2022-11-18T08:53:52.678Z,18.51
2022-11-18T08:56:21.710Z,18.97
2022-11-18T08:58:48.439Z,19.73
2022-11-18T09:01:15.281Z,20.40
2022-11-18T09:03:42.515Z,20.38
2022-11-18T09:06:14.730Z,19.77
2022-11-18T09:08:42.541Z,19.60
2022-11-18T09:11:14.890Z,19.13
2022-11-18T09:14:14.258Z,18.07
2022-11-18T09:16:32.329Z,16.98
2022-11-18T09:19:13.093Z,16.40
2022-11-18T09:21:47.053Z,15.77
2022-11-18T09:24:13.953Z,15.39
2022-11-18T09:26:41.252Z,16.06
2022-11-18T09:29:08.740Z,17.57
2022-11-18T09:31:35.699Z,18.97
2022-11-18T09:34:02.448Z,19.47
2022-11-18T09:36:29.577Z,20.63
2022-11-18T09:38:56.465Z,21.50
2022-11-18T09:41:45.293Z,21.67
2022-11-18T09:45:02.797Z,22.42
2022-11-18T09:47:33.919Z,21.94
2022-11-18T09:50:26.608Z,22.45
2022-11-18T09:53:07.342Z,23.36
2022-11-18T09:55:38.674Z,24.15
2022-11-18T09:58:06.511Z,24.92
2022-11-18T10:00:34.305Z,25.48
2022-11-18T10:03:01.108Z,26.02
2022-11-18T10:05:36.965Z,26.56
2022-11-18T10:08:15.601Z,26.98
2022-11-18T10:11:00.465Z,27.38
2022-11-18T10:13:30.125Z,27.80
2022-11-18T10:16:17.277Z,28.01
2022-11-18T10:19:07.151Z,27.91
2022-11-18T10:22:01.323Z,28.24
2022-11-18T10:24:33.180Z,28.30
2022-11-18T10:27:00.685Z,27.22
2022-11-18T10:29:27.657Z,25.85
2022-11-18T10:32:08.615Z,24.56
2022-11-18T10:34:53.850Z,23.31
2022-11-18T10:37:39.048Z,22.20
2022-11-18T10:40:26.020Z,21.13
2022-11-18T10:42:53.639Z,20.39
2022-11-18T10:45:23.311Z,20.72
2022-11-18T10:48:09.410Z,20.52
2022-11-18T10:50:49.234Z,20.39
2022-11-18T10:53:37.205Z,21.09
2022-11-18T10:56:08.735Z,21.81
2022-11-18T10:58:43.575Z,21.66
2022-11-18T11:01:19.182Z,21.72
2022-11-18T11:04:03.215Z,21.74
2022-11-18T11:06:32.785Z,22.28
2022-11-18T11:09:02.383Z,23.95
2022-11-18T11:11:29.397Z,25.56
2022-11-18T11:14:03.647Z,26.49
2022-11-18T11:16:31.906Z,27.47
2022-11-18T11:19:02.502Z,28.29
2022-11-18T11:21:30.238Z,29.09
2022-11-18T11:23:57.221Z,29.43
2022-11-18T11:29:47.510Z,30.96
2022-11-18T11:32:43.917Z,31.30
2022-11-18T11:35:30.440Z,31.60
2022-11-18T11:38:06.598Z,31.83
2022-11-18T11:40:59.485Z,32.03
2022-11-18T11:43:56.634Z,31.67
2022-11-18T11:47:19.943Z,29.70
2022-11-18T11:50:12.941Z,27.64
2022-11-18T11:52:45.480Z,26.55
2022-11-18T11:55:31.209Z,25.56
2022-11-18T11:58:00.600Z,24.36
2022-11-18T12:00:28.956Z,22.88
2022-11-18T12:02:58.488Z,22.23
2022-11-18T12:05:36.178Z,20.93
2022-11-18T12:08:24.536Z,20.36
2022-11-18T12:10:54.376Z,19.84
2022-11-18T12:13:23.969Z,18.59
2022-11-18T12:15:50.654Z,17.82
2022-11-18T12:18:42.194Z,17.02
2022-11-18T12:21:09.367Z,16.58
2022-11-18T12:23:36.207Z,16.30
2022-11-18T12:26:10.436Z,16.21
2022-11-18T12:28:44.023Z,16.24
2022-11-18T12:31:16.606Z,16.38
2022-11-18T12:33:55.627Z,16.28
2022-11-18T12:36:37.465Z,16.26
2022-11-18T12:39:36.359Z,16.21
2022-11-18T12:42:23.486Z,17.12
2022-11-18T12:44:52.825Z,19.90
2022-11-18T12:47:42.656Z,22.37
2022-11-18T12:50:11.211Z,23.02
2022-11-18T12:52:37.893Z,24.03
2022-11-18T12:55:31.872Z,25.08
2022-11-18T12:57:58.683Z,24.04
2022-11-18T13:00:25.502Z,23.09
2022-11-18T13:02:57.463Z,21.91
2022-11-18T13:05:25.844Z,20.59
2022-11-18T13:08:16.783Z,19.53
2022-11-18T13:10:43.416Z,18.66
2022-11-18T13:13:27.173Z,17.85
2022-11-18T13:16:14.661Z,17.20
2022-11-18T13:18:52.433Z,16.58
2022-11-18T13:21:46.993Z,16.13
2022-11-18T13:24:16.091Z,15.71
2022-11-18T13:26:45.886Z,15.50
2022-11-18T13:29:13.703Z,15.44
2022-11-18T13:32:08.737Z,15.43
2022-11-18T13:34:47.289Z,15.46
2022-11-18T13:37:29.662Z,15.44
2022-11-18T13:39:57.581Z,15.29
2022-11-18T13:42:28.401Z,15.18
2022-11-18T13:44:59.849Z,15.00
2022-11-18T13:47:40.128Z,15.07
2022-11-18T13:50:31.864Z,15.12
2022-11-18T13:53:13.834Z,15.39
2022-11-18T13:55:57.873Z,15.60
2022-11-18T13:58:49.688Z,15.73
2022-11-18T14:01:29.393Z,15.34
2022-11-18T14:03:58.826Z,15.13
2022-11-18T14:06:26.490Z,14.81
2022-11-18T14:09:19.139Z,14.57
2022-11-18T14:12:23.828Z,14.45
2022-11-18T14:14:50.592Z,14.40
2022-11-18T14:17:24.700Z,14.25
2022-11-18T14:19:56.676Z,14.29
2022-11-18T14:22:28.784Z,14.25
2022-11-18T14:24:58.621Z,14.46
2022-11-18T14:27:29.358Z,14.36
2022-11-18T14:29:56.310Z,14.77
2022-11-18T14:32:23.578Z,14.98
2022-11-18T14:35:00.789Z,15.07
2022-11-18T14:37:27.942Z,15.06
2022-11-18T14:39:56.405Z,15.04
2022-11-18T14:42:23.918Z,15.09
2022-11-18T14:44:51.227Z,14.99
2022-11-18T14:47:28.622Z,15.00
2022-11-18T14:49:55.813Z,14.92
2022-11-18T14:52:22.511Z,14.96
2022-11-18T14:54:49.307Z,14.86
2022-11-18T14:57:17.428Z,14.88
2022-11-18T14:59:44.168Z,14.78
2022-11-18T15:02:16.272Z,14.60
2022-11-18T15:04:43.332Z,14.53
2022-11-18T15:07:18.525Z,14.31
2022-11-18T15:09:49.755Z,13.92
2022-11-18T15:12:16.618Z,13.69
2022-11-18T15:14:43.503Z,13.58
2022-11-18T15:17:12.440Z,13.44
2022-11-18T15:19:40.913Z,13.47
2022-11-18T15:22:08.082Z,13.56
2022-11-18T15:24:34.782Z,13.49
2022-11-18T15:27:05.511Z,13.45
2022-11-18T15:29:32.543Z,13.50
2022-11-18T15:32:00.252Z,13.60
2022-11-18T15:34:27.210Z,13.55
2022-11-18T15:36:53.966Z,13.54
2022-11-18T15:39:20.783Z,13.54
2022-11-18T15:41:47.598Z,13.58
2022-11-18T15:44:16.231Z,13.69
2022-11-18T15:46:45.501Z,13.72
2022-11-18T15:49:14.602Z,13.73
2022-11-18T15:51:41.598Z,13.67
2022-11-18T15:54:08.349Z,13.74
2022-11-18T15:56:35.300Z,13.69
2022-11-18T15:59:07.527Z,13.41
2022-11-18T16:01:36.833Z,13.66
2022-11-18T16:04:05.225Z,13.66
2022-11-18T16:06:32.962Z,13.69
2022-11-18T16:09:00.661Z,13.68
2022-11-18T16:11:47.966Z,13.70
2022-11-18T16:14:17.396Z,13.64
2022-11-18T16:16:45.795Z,13.70
2022-11-18T16:19:14.744Z,13.85
2022-11-18T16:21:44.293Z,13.95
2022-11-18T16:24:13.532Z,13.94
2022-11-18T16:26:40.395Z,13.79
2022-11-18T16:29:08.101Z,13.68
2022-11-18T16:31:41.277Z,13.96
2022-11-18T16:34:28.424Z,14.67
2022-11-18T16:36:57.766Z,15.21
2022-11-18T16:39:27.302Z,15.22
2022-11-18T16:41:59.418Z,14.76
2022-11-18T16:44:29.191Z,14.35
2022-11-18T16:46:57.660Z,14.02
2022-11-18T16:49:26.344Z,13.78
2022-11-18T16:51:55.110Z,13.62
2022-11-18T16:54:31.151Z,13.44
2022-11-18T16:56:59.452Z,13.33
2022-11-18T16:59:28.659Z,13.21
2022-11-18T17:01:57.292Z,13.07
2022-11-18T17:04:25.684Z,12.97
2022-11-18T17:06:53.412Z,12.88
2022-11-18T17:09:22.562Z,12.99
2022-11-18T17:11:50.736Z,12.89
2022-11-18T17:14:17.958Z,12.86
2022-11-18T17:16:44.705Z,12.80
2022-11-18T17:19:16.846Z,12.77
2022-11-18T17:21:44.654Z,12.78
2022-11-18T17:24:14.066Z,12.71
2022-11-18T17:26:41.660Z,12.57
2022-11-18T17:29:11.576Z,12.56
2022-11-18T17:31:39.546Z,12.56
2022-11-18T17:34:06.475Z,12.53
2022-11-18T17:36:33.417Z,12.50
2022-11-18T17:39:00.976Z,12.49
2022-11-18T17:41:47.214Z,12.40
2022-11-18T17:44:16.400Z,12.35
2022-11-18T17:46:43.573Z,12.26
2022-11-18T17:49:18.323Z,12.22
2022-11-18T17:51:46.277Z,12.24
2022-11-18T17:54:13.371Z,12.22
2022-11-18T17:56:40.328Z,12.21
2022-11-18T17:59:07.601Z,12.19
2022-11-18T18:01:34.504Z,12.18
2022-11-18T18:04:01.410Z,12.14
2022-11-18T18:06:28.119Z,12.21
2022-11-18T18:08:56.669Z,12.21
2022-11-18T18:11:23.818Z,12.23
2022-11-18T18:14:09.113Z,12.19
2022-11-18T18:16:36.192Z,12.28
2022-11-18T18:19:05.199Z,12.24
2022-11-18T18:21:32.720Z,12.23
2022-11-18T18:24:00.188Z,12.18
2022-11-18T18:26:31.532Z,12.12
2022-11-18T18:29:00.143Z,12.09
2022-11-18T18:31:27.593Z,12.04
2022-11-18T18:33:54.613Z,12.00
2022-11-18T18:36:21.864Z,11.95
2022-11-18T18:38:48.647Z,11.93
2022-11-18T18:41:21.107Z,11.77
2022-11-18T18:43:48.669Z,11.90
2022-11-18T18:46:33.535Z,11.92
2022-11-18T18:49:04.791Z,11.96
2022-11-18T18:51:37.586Z,11.99
2022-11-18T18:54:05.332Z,11.98
2022-11-18T18:56:32.999Z,11.98
2022-11-18T18:59:00.518Z,11.98
2022-11-18T19:01:28.280Z,11.95
2022-11-18T19:04:00.375Z,11.93
2022-11-18T19:06:55.020Z,12.01
2022-11-18T19:09:19.476Z,12.06
2022-11-18T19:12:05.341Z,12.17
2022-11-18T19:14:33.683Z,12.23
2022-11-18T19:17:05.035Z,12.30
2022-11-18T19:19:55.569Z,12.32
2022-11-18T19:22:22.746Z,12.32
2022-11-18T19:27:38.987Z,12.39
2022-11-18T19:30:10.086Z,12.35
2022-11-18T19:32:42.160Z,12.38
2022-11-18T19:35:09.733Z,12.39
2022-11-18T19:37:36.792Z,12.27
2022-11-18T19:40:08.904Z,12.23
2022-11-18T19:42:37.807Z,12.33
2022-11-18T19:45:06.428Z,12.31
2022-11-18T19:47:33.774Z,12.30
2022-11-18T19:50:00.524Z,12.32
2022-11-18T19:52:27.599Z,12.37
2022-11-18T19:54:54.986Z,12.28
2022-11-18T19:57:22.135Z,12.29
2022-11-18T19:59:48.939Z,12.23
2022-11-18T20:02:15.763Z,12.21
2022-11-18T20:05:02.491Z,12.14
2022-11-18T20:07:29.882Z,12.06
2022-11-18T20:09:56.657Z,11.99
2022-11-18T20:12:23.645Z,11.98
2022-11-18T20:14:50.430Z,11.97
2022-11-18T20:17:17.131Z,11.96
2022-11-18T20:19:43.929Z,11.97
2022-11-18T20:22:10.738Z,11.96
2022-11-18T20:24:37.443Z,11.94
2022-11-18T20:27:04.592Z,11.93
2022-11-18T20:29:31.298Z,11.89
2022-11-18T20:31:57.970Z,11.79
2022-11-18T20:34:24.766Z,11.79
2022-11-18T20:36:54.659Z,11.78
2022-11-18T20:39:21.976Z,11.70
2022-11-18T20:42:07.444Z,11.73
2022-11-18T20:44:34.148Z,11.55
2022-11-18T20:47:00.834Z,11.69
2022-11-18T20:49:27.743Z,11.66
2022-11-18T20:51:54.472Z,11.71
2022-11-18T20:54:21.159Z,11.66
2022-11-18T20:56:47.906Z,11.71
2022-11-18T20:59:14.595Z,11.73
2022-11-18T21:01:41.433Z,11.78
2022-11-18T21:04:11.246Z,11.75
2022-11-18T21:06:38.614Z,11.70
2022-11-18T21:09:06.605Z,11.63
2022-11-18T21:11:35.031Z,11.60
2022-11-18T21:14:24.570Z,11.48
2022-11-18T21:17:00.833Z,11.37
2022-11-18T21:19:28.800Z,11.37
2022-11-18T21:21:56.496Z,11.44
2022-11-18T21:24:27.781Z,11.42
2022-11-18T21:26:55.389Z,11.55
2022-11-18T21:29:25.921Z,11.63
2022-11-18T21:31:53.700Z,11.60
2022-11-18T21:34:20.995Z,11.69
2022-11-18T21:36:53.159Z,11.73
2022-11-18T21:39:22.708Z,11.70
2022-11-18T21:41:55.176Z,11.78
2022-11-18T21:44:24.057Z,11.80
2022-11-18T21:46:50.835Z,11.84
2022-11-18T21:49:17.841Z,11.87
2022-11-18T21:51:45.355Z,11.78
2022-11-18T21:54:13.058Z,11.87
2022-11-18T21:56:39.755Z,11.80
2022-11-18T21:59:07.875Z,11.83
2022-11-18T22:01:35.133Z,11.81
2022-11-18T22:04:04.381Z,11.72
2022-11-18T22:06:34.026Z,11.71
2022-11-18T22:09:02.709Z,11.65
2022-11-18T22:11:29.674Z,11.65
2022-11-18T22:13:56.797Z,11.67
2022-11-18T22:16:25.155Z,11.65
2022-11-18T22:18:59.976Z,11.69
2022-11-18T22:21:28.183Z,11.72
2022-11-18T22:24:00.148Z,11.78
2022-11-18T22:26:28.483Z,11.82
2022-11-18T22:28:57.319Z,11.85
2022-11-18T22:31:26.680Z,11.79
2022-11-18T22:33:55.713Z,11.84
2022-11-18T22:36:24.895Z,11.74
2022-11-18T22:38:51.984Z,11.85
2022-11-18T22:41:39.862Z,11.88
2022-11-18T22:44:08.476Z,11.85
2022-11-18T22:46:36.868Z,11.91
2022-11-18T22:49:04.705Z,11.92
2022-11-18T22:51:31.930Z,11.87
2022-11-18T22:56:45.521Z,11.90
2022-11-18T22:59:12.851Z,11.94
2022-11-18T23:01:39.886Z,11.89
2022-11-18T23:04:07.211Z,11.91
2022-11-18T23:06:34.359Z,11.97
2022-11-18T23:09:01.069Z,11.97
2022-11-18T23:11:46.573Z,12.04
2022-11-18T23:14:13.458Z,11.94
2022-11-18T23:16:41.990Z,11.77
2022-11-18T23:19:14.909Z,11.87
2022-11-18T23:21:43.362Z,11.81
2022-11-18T23:24:14.989Z,11.71
2022-11-18T23:26:42.368Z,11.66
2022-11-18T23:29:10.915Z,11.73
2022-11-18T23:31:43.030Z,11.78
2022-11-18T23:34:12.760Z,11.78
2022-11-18T23:36:39.962Z,11.69
2022-11-18T23:39:06.834Z,11.74
2022-11-18T23:41:33.665Z,11.72
2022-11-18T23:44:00.650Z,11.60
2022-11-18T23:46:27.946Z,11.69
2022-11-18T23:48:55.054Z,11.76
2022-11-18T23:51:23.850Z,11.81
2022-11-18T23:53:56.287Z,11.83
2022-11-18T23:56:25.435Z,11.84
2022-11-18T23:58:53.807Z,11.89
